Time;durP1;ratioP1;P1;durP2;ratioP2;P2;SDS_P1;SDS_P2;PMS_P1;PMS_P2;Temp;Humidity;BMP_temperature;BMP_pressure;BME280_temperature;BME280_humidity;BME280_pressure;Samples;Min_cycle;Max_cycle;Signal;HPM_P1;HPM_P2
2023/09/23 00:00:56;;;;;;;0.30;0.30;;;12.40;90.70;;;;;;6158695;23;20005;-77
2023/09/23 00:03:23;;;;;;;0.20;0.20;;;12.40;90.70;;;;;;6184958;23;20496;-77
2023/09/23 00:05:50;;;;;;;0.50;0.30;;;12.40;90.70;;;;;;6157716;23;20505;-77
2023/09/23 00:08:19;;;;;;;0.30;0.30;;;12.40;90.70;;;;;;6158768;23;20033;-77
2023/09/23 00:10:45;;;;;;;0.35;0.30;;;12.30;90.70;;;;;;6158577;23;20016;-77
2023/09/23 00:13:11;;;;;;;0.20;0.20;;;12.30;90.70;;;;;;6134028;23;20012;-77
2023/09/23 00:15:41;;;;;;;0.57;0.20;;;12.30;90.70;;;;;;6184291;23;20001;-77
2023/09/23 00:18:07;;;;;;;0.30;0.30;;;12.20;90.70;;;;;;6162392;23;20080;-77
2023/09/23 00:20:36;;;;;;;0.20;0.20;;;12.20;90.80;;;;;;6187558;23;20017;-77
2023/09/23 00:23:05;;;;;;;0.20;0.20;;;12.10;90.70;;;;;;6138303;23;20064;-77
2023/09/23 00:25:33;;;;;;;0.28;0.28;;;12.20;90.80;;;;;;6136418;23;20012;-76
2023/09/23 00:27:59;;;;;;;0.20;0.20;;;12.10;90.80;;;;;;6134297;23;20496;-77
2023/09/23 00:30:26;;;;;;;0.25;0.20;;;12.10;90.80;;;;;;6183771;23;19997;-77
2023/09/23 00:32:52;;;;;;;0.38;0.38;;;12.10;90.80;;;;;;6157880;23;20005;-77
2023/09/23 00:35:18;;;;;;;0.15;0.15;;;12.00;90.80;;;;;;6157593;23;20007;-77
2023/09/23 00:37:48;;;;;;;0.32;0.28;;;12.00;90.80;;;;;;6108388;23;20463;-77
2023/09/23 00:40:17;;;;;;;0.25;0.25;;;12.00;90.80;;;;;;6134493;23;20012;-78
2023/09/23 00:42:47;;;;;;;0.55;0.30;;;12.00;90.80;;;;;;6131273;23;20438;-77
2023/09/23 00:45:15;;;;;;;0.30;0.30;;;12.00;90.80;;;;;;6158193;23;20452;-77
2023/09/23 00:47:43;;;;;;;0.40;0.30;;;12.00;90.70;;;;;;6133074;23;20001;-77
2023/09/23 00:50:19;;;;;;;0.30;0.30;;;12.00;90.70;;;;;;6132535;23;20425;-77
2023/09/23 00:52:51;;;;;;;0.28;0.20;;;11.90;90.70;;;;;;6134524;23;20059;-78
2023/09/23 00:55:19;;;;;;;0.50;0.40;;;12.00;90.70;;;;;;6133417;23;20001;-77
2023/09/23 00:57:47;;;;;;;0.30;0.30;;;11.90;90.70;;;;;;6157044;23;20324;-76
2023/09/23 01:00:23;;;;;;;0.20;0.20;;;12.00;90.70;;;;;;6157746;23;20413;-77
2023/09/23 01:02:49;;;;;;;0.20;0.20;;;11.90;90.70;;;;;;6159314;23;20145;-77
2023/09/23 01:05:18;;;;;;;0.22;0.22;;;11.90;90.70;;;;;;6183575;23;20116;-77
2023/09/23 01:07:46;;;;;;;0.20;0.20;;;11.90;90.70;;;;;;6183400;23;20036;-77
2023/09/23 01:10:12;;;;;;;0.40;0.40;;;11.90;90.70;;;;;;6157821;23;20001;-78
2023/09/23 01:12:38;;;;;;;0.20;0.20;;;12.00;90.70;;;;;;6157203;23;20060;-77
2023/09/23 01:15:17;;;;;;;0.77;0.40;;;11.90;90.60;;;;;;6132542;23;20001;-77
2023/09/23 01:17:46;;;;;;;0.55;0.20;;;12.00;90.70;;;;;;6113826;23;20033;-77
2023/09/23 01:20:12;;;;;;;0.30;0.30;;;11.90;90.60;;;;;;6157193;23;20321;-78
2023/09/23 01:22:39;;;;;;;0.38;0.38;;;11.90;90.60;;;;;;6157201;23;20445;-77
2023/09/23 01:25:05;;;;;;;1.00;0.50;;;11.90;90.60;;;;;;6132627;23;20036;-77
2023/09/23 01:27:34;;;;;;;0.65;0.57;;;11.90;90.70;;;;;;6131785;23;20005;-77
2023/09/23 01:30:03;;;;;;;0.57;0.50;;;11.90;90.70;;;;;;6133210;23;20008;-77
2023/09/23 01:32:51;;;;;;;0.85;0.60;;;11.90;90.70;;;;;;6157866;23;20009;-77
2023/09/23 01:35:20;;;;;;;0.60;0.60;;;11.90;90.70;;;;;;6156611;23;20016;-78
2023/09/23 01:37:47;;;;;;;1.05;0.90;;;11.80;90.70;;;;;;6157207;23;20001;-78
2023/09/23 01:40:18;;;;;;;1.27;0.95;;;11.80;90.60;;;;;;6157415;23;20001;-77
2023/09/23 01:42:45;;;;;;;1.17;0.90;;;11.80;90.70;;;;;;6158282;23;20001;-77
2023/09/23 01:45:13;;;;;;;1.30;0.85;;;11.80;90.70;;;;;;6157913;23;20009;-77
2023/09/23 01:47:40;;;;;;;1.05;0.90;;;11.70;90.70;;;;;;6156809;23;20088;-77
2023/09/23 01:50:09;;;;;;;1.10;0.90;;;11.80;90.70;;;;;;6183197;23;20353;-77
2023/09/23 01:52:36;;;;;;;0.88;0.85;;;11.80;90.70;;;;;;6156723;23;20065;-77
2023/09/23 01:55:04;;;;;;;1.10;1.00;;;11.70;90.70;;;;;;6156982;23;20004;-77
2023/09/23 01:57:33;;;;;;;2.47;0.95;;;11.70;90.70;;;;;;6157334;23;20445;-77
2023/09/23 02:00:00;;;;;;;0.98;0.88;;;11.80;90.70;;;;;;6133004;23;20005;-77
2023/09/23 02:02:27;;;;;;;0.93;0.90;;;11.80;90.70;;;;;;6183233;23;20452;-77
2023/09/23 02:04:53;;;;;;;0.95;0.80;;;11.80;90.70;;;;;;6156399;23;20096;-77
2023/09/23 02:07:19;;;;;;;1.15;1.00;;;11.80;90.70;;;;;;6131240;23;20029;-77
2023/09/23 02:09:45;;;;;;;1.58;1.10;;;11.90;90.70;;;;;;6157345;23;20325;-77
2023/09/23 02:12:12;;;;;;;1.33;1.20;;;11.90;90.70;;;;;;6184158;23;20072;-77
2023/09/23 02:14:41;;;;;;;1.75;1.27;;;11.90;90.70;;;;;;6132702;23;20009;-77
2023/09/23 02:17:07;;;;;;;1.77;1.33;;;11.90;90.60;;;;;;6183195;23;20088;-78
2023/09/23 02:19:33;;;;;;;1.65;1.30;;;12.00;90.60;;;;;;6108487;23;20325;-77
2023/09/23 02:22:05;;;;;;;1.88;1.30;;;12.00;90.60;;;;;;6157169;23;20013;-78
2023/09/23 02:24:32;;;;;;;1.85;1.30;;;12.00;90.60;;;;;;6133704;23;20013;-77
2023/09/23 02:26:58;;;;;;;2.63;1.30;;;12.00;90.60;;;;;;6157354;23;20025;-77
2023/09/23 02:29:24;;;;;;;1.85;1.42;;;12.00;90.60;;;;;;6156645;23;20001;-77
2023/09/23 02:31:50;;;;;;;2.42;1.63;;;12.00;90.60;;;;;;6107921;23;20005;-78
2023/09/23 02:34:17;;;;;;;2.25;1.60;;;12.00;90.60;;;;;;6156919;23;20135;-77
2023/09/23 02:36:45;;;;;;;2.00;1.40;;;12.00;90.60;;;;;;6157077;23;20005;-78
2023/09/23 02:39:16;;;;;;;2.10;1.50;;;12.10;90.60;;;;;;6156797;23;20051;-78
2023/09/23 02:41:45;;;;;;;1.92;1.20;;;12.00;90.60;;;;;;6157426;23;20036;-77
2023/09/23 02:44:15;;;;;;;1.98;1.50;;;12.10;90.60;;;;;;6132427;23;20017;-77
2023/09/23 02:46:42;;;;;;;1.90;1.40;;;12.10;90.60;;;;;;6158040;23;20020;-77
2023/09/23 02:49:09;;;;;;;1.98;1.42;;;12.10;90.60;;;;;;6133509;23;20001;-77
2023/09/23 02:51:36;;;;;;;2.30;1.30;;;12.10;90.60;;;;;;6157569;23;20601;-77
2023/09/23 02:54:04;;;;;;;2.55;1.73;;;12.00;90.60;;;;;;6108990;23;20005;-77
2023/09/23 02:56:30;;;;;;;2.53;1.55;;;12.00;90.70;;;;;;6157581;23;20373;-78
2023/09/23 02:58:57;;;;;;;1.80;1.33;;;12.10;90.70;;;;;;6133485;23;20039;-78
2023/09/23 03:01:23;;;;;;;2.17;1.38;;;12.00;90.70;;;;;;6157743;23;20044;-78
2023/09/23 03:03:49;;;;;;;2.08;1.35;;;12.00;90.70;;;;;;6157902;23;20508;-77
2023/09/23 03:06:16;;;;;;;1.90;1.40;;;12.00;90.70;;;;;;6157867;23;20001;-78
2023/09/23 03:08:47;;;;;;;2.42;1.55;;;12.00;90.70;;;;;;6133290;23;20813;-78
2023/09/23 03:11:17;;;;;;;2.35;1.58;;;12.00;90.70;;;;;;6157482;23;20337;-78
2023/09/23 03:13:44;;;;;;;2.77;1.20;;;12.00;90.80;;;;;;6157852;23;20011;-78
2023/09/23 03:16:13;;;;;;;1.60;1.30;;;12.00;91.00;;;;;;6133205;23;20052;-78
2023/09/23 03:18:44;;;;;;;2.22;1.40;;;12.00;90.80;;;;;;6158110;23;20048;-78
2023/09/23 03:21:10;;;;;;;2.35;1.27;;;12.20;90.80;;;;;;6184207;23;20015;-78
2023/09/23 03:23:39;;;;;;;1.48;1.20;;;12.10;90.80;;;;;;6156992;23;20071;-78
2023/09/23 03:26:06;;;;;;;1.75;1.30;;;12.10;90.80;;;;;;6157696;23;20004;-78
2023/09/23 03:28:34;;;;;;;3.17;1.70;;;12.10;90.70;;;;;;6158771;23;20004;-79
2023/09/23 03:31:00;;;;;;;2.33;1.52;;;12.10;90.70;;;;;;6157963;23;20013;-78
2023/09/23 03:33:27;;;;;;;2.17;1.50;;;12.10;90.70;;;;;;6157586;23;20004;-79
2023/09/23 03:35:53;;;;;;;2.88;1.90;;;12.20;90.70;;;;;;6109274;23;20013;-78
2023/09/23 03:38:20;;;;;;;3.15;1.90;;;12.20;90.70;;;;;;6133614;23;20442;-78
2023/09/23 03:40:51;;;;;;;2.20;1.65;;;12.20;90.70;;;;;;6158245;23;20009;-78
2023/09/23 03:43:17;;;;;;;2.50;1.70;;;12.20;90.70;;;;;;6133445;23;20380;-78
2023/09/23 03:45:43;;;;;;;2.75;2.00;;;12.20;90.70;;;;;;6133652;23;20073;-78
2023/09/23 03:48:10;;;;;;;2.70;1.88;;;12.20;90.70;;;;;;6184678;23;20445;-78
2023/09/23 03:50:36;;;;;;;3.28;1.98;;;12.20;90.70;;;;;;6158686;23;20076;-78
2023/09/23 03:53:02;;;;;;;3.00;1.75;;;12.30;91.00;;;;;;6108892;23;20024;-78
2023/09/23 03:55:28;;;;;;;2.58;1.70;;;12.30;90.70;;;;;;6184992;23;20001;-78
2023/09/23 03:57:54;;;;;;;2.80;1.70;;;12.30;90.70;;;;;;6158215;23;20104;-77
2023/09/23 04:00:26;;;;;;;2.55;1.70;;;12.30;90.70;;;;;;6158439;23;20036;-78
2023/09/23 04:02:54;;;;;;;3.15;1.83;;;12.30;90.70;;;;;;6135340;23;20066;-78
2023/09/23 04:05:23;;;;;;;2.53;1.63;;;12.30;90.70;;;;;;6185228;23;20008;-79
2023/09/23 04:07:50;;;;;;;2.88;1.80;;;12.30;90.80;;;;;;6134682;23;20001;-78
2023/09/23 04:10:18;;;;;;;3.08;2.08;;;12.30;90.80;;;;;;6133999;23;20451;-78
2023/09/23 04:12:44;;;;;;;2.67;1.80;;;12.30;90.80;;;;;;6135360;23;20429;-78
2023/09/23 04:15:10;;;;;;;3.20;1.98;;;12.30;90.80;;;;;;6159215;23;20055;-77
2023/09/23 04:17:39;;;;;;;3.13;1.98;;;12.20;90.80;;;;;;6186685;23;19997;-79
2023/09/23 04:20:09;;;;;;;3.50;2.15;;;12.20;90.80;;;;;;6162996;23;20005;-79
2023/09/23 04:22:36;;;;;;;2.85;1.88;;;12.20;90.80;;;;;;6184128;23;20011;-78
2023/09/23 04:25:04;;;;;;;3.10;1.80;;;12.20;90.80;;;;;;6161032;23;20005;-78
2023/09/23 04:27:32;;;;;;;3.50;2.10;;;12.20;90.80;;;;;;6135564;23;20076;-78
2023/09/23 04:30:00;;;;;;;2.10;1.73;;;12.20;90.80;;;;;;6185917;23;20027;-78
2023/09/23 04:32:26;;;;;;;2.45;1.80;;;12.10;90.80;;;;;;6116983;23;19993;-78
2023/09/23 04:34:52;;;;;;;3.30;1.95;;;12.20;90.90;;;;;;6137949;23;20006;-79
2023/09/23 04:37:18;;;;;;;3.35;2.05;;;12.30;90.90;;;;;;6160368;23;20058;-79
2023/09/23 04:39:43;;;;;;;3.42;2.17;;;12.20;90.80;;;;;;6140506;23;20017;-79
2023/09/23 04:42:11;;;;;;;3.10;1.88;;;12.20;90.80;;;;;;6158792;23;20005;-79
2023/09/23 04:44:37;;;;;;;3.05;2.08;;;12.30;90.90;;;;;;6112733;23;20020;-78
2023/09/23 04:47:06;;;;;;;2.78;2.00;;;12.20;90.90;;;;;;6187903;23;19997;-78
2023/09/23 04:49:31;;;;;;;2.97;2.08;;;12.20;90.90;;;;;;6139783;23;20008;-80
2023/09/23 04:51:57;;;;;;;3.78;2.20;;;12.20;90.90;;;;;;6133275;23;20425;-79
2023/09/23 04:54:23;;;;;;;3.85;2.10;;;12.20;90.90;;;;;;6135638;23;20433;-78
2023/09/23 04:56:48;;;;;;;3.10;1.90;;;12.10;90.90;;;;;;6108369;23;20005;-79
2023/09/23 04:59:14;;;;;;;3.08;2.05;;;12.20;90.90;;;;;;6159482;23;20080;-78
2023/09/23 05:01:40;;;;;;;3.05;2.10;;;12.20;90.90;;;;;;6134078;23;20005;-78
2023/09/23 05:04:12;;;;;;;2.60;1.98;;;12.20;90.90;;;;;;6158739;23;20016;-78
2023/09/23 05:06:38;;;;;;;3.28;1.85;;;12.20;91.00;;;;;;6160567;23;20786;-78
2023/09/23 05:09:04;;;;;;;2.70;1.90;;;12.10;90.90;;;;;;6133411;23;20001;-78
2023/09/23 05:11:30;;;;;;;4.22;2.10;;;12.20;90.90;;;;;;6159843;23;20433;-78
2023/09/23 05:13:56;;;;;;;2.88;1.80;;;12.20;90.90;;;;;;6187348;23;20008;-78
2023/09/23 05:16:22;;;;;;;2.33;1.60;;;12.20;90.90;;;;;;6158711;23;20009;-78
2023/09/23 05:18:49;;;;;;;2.53;1.75;;;12.20;90.90;;;;;;6133541;23;20079;-78
2023/09/23 05:21:18;;;;;;;2.58;1.70;;;12.20;90.90;;;;;;6135768;23;20008;-78
2023/09/23 05:23:48;;;;;;;2.75;1.90;;;12.20;90.90;;;;;;6160645;23;20097;-78
2023/09/23 05:26:15;;;;;;;3.35;1.95;;;12.30;90.90;;;;;;6159342;23;20001;-79
2023/09/23 05:28:43;;;;;;;2.78;1.92;;;12.20;90.90;;;;;;6158515;23;20005;-78
2023/09/23 05:31:09;;;;;;;2.38;1.65;;;12.20;90.90;;;;;;6135208;23;20111;-79
2023/09/23 05:33:35;;;;;;;3.03;1.95;;;12.20;91.00;;;;;;6111355;23;20015;-78
2023/09/23 05:36:03;;;;;;;3.20;1.95;;;12.10;91.00;;;;;;6162218;23;20060;-79
2023/09/23 05:38:29;;;;;;;1.95;1.65;;;12.10;91.00;;;;;;6113670;23;20004;-79
2023/09/23 05:40:54;;;;;;;3.20;1.55;;;12.10;91.00;;;;;;6161541;23;20005;-78
2023/09/23 05:43:20;;;;;;;2.70;1.75;;;12.10;91.00;;;;;;6110772;23;20013;-79
2023/09/23 05:45:46;;;;;;;3.83;1.95;;;12.10;91.00;;;;;;6158055;23;20059;-77
2023/09/23 05:48:12;;;;;;;1.38;1.23;;;12.00;91.00;;;;;;6161130;23;20017;-78
2023/09/23 05:50:39;;;;;;;1.80;1.40;;;12.10;91.00;;;;;;6185103;23;20025;-78
2023/09/23 05:53:05;;;;;;;2.65;1.30;;;12.10;91.00;;;;;;6185518;23;20438;-78
2023/09/23 05:55:31;;;;;;;1.77;1.40;;;12.10;91.00;;;;;;6135597;23;20028;-79
2023/09/23 05:57:56;;;;;;;1.38;1.20;;;12.10;91.00;;;;;;6135167;23;20005;-78
2023/09/23 06:00:22;;;;;;;1.40;1.00;;;12.10;91.00;;;;;;6134325;23;20009;-79
2023/09/23 06:02:48;;;;;;;1.20;1.10;;;12.10;91.00;;;;;;6109625;23;20005;-79
2023/09/23 06:05:14;;;;;;;1.75;1.20;;;12.10;91.00;;;;;;6158693;23;20429;-79
2023/09/23 06:07:41;;;;;;;2.35;1.30;;;12.10;91.00;;;;;;6159421;23;20053;-79
2023/09/23 06:10:08;;;;;;;2.30;1.20;;;12.10;91.00;;;;;;6160465;23;20009;-79
2023/09/23 06:12:35;;;;;;;1.75;1.15;;;12.20;91.00;;;;;;6160789;23;20001;-78
2023/09/23 06:15:05;;;;;;;2.78;1.20;;;12.20;91.00;;;;;;6173181;23;20009;-79
2023/09/23 06:17:34;;;;;;;2.42;1.33;;;12.20;91.00;;;;;;6139334;23;20020;-77
2023/09/23 06:20:00;;;;;;;1.63;1.17;;;12.20;91.00;;;;;;6188414;23;20005;-77
2023/09/23 06:22:26;;;;;;;1.88;1.30;;;12.10;91.00;;;;;;6108968;23;20028;-76
2023/09/23 06:24:53;;;;;;;1.17;1.00;;;12.20;91.00;;;;;;6186805;23;20096;-77
2023/09/23 06:27:19;;;;;;;2.67;1.20;;;12.20;91.00;;;;;;6136003;23;20005;-76
2023/09/23 06:29:46;;;;;;;2.28;1.40;;;12.30;91.00;;;;;;6133896;23;20027;-77
2023/09/23 06:32:13;;;;;;;1.77;1.30;;;12.20;90.90;;;;;;6157860;23;20056;-77
2023/09/23 06:34:38;;;;;;;1.20;1.00;;;12.30;90.90;;;;;;6184269;23;20483;-77
2023/09/23 06:37:04;;;;;;;1.88;1.23;;;12.30;91.00;;;;;;6184703;23;20080;-76
2023/09/23 06:39:30;;;;;;;1.45;1.20;;;12.30;91.00;;;;;;6132926;23;20009;-78
2023/09/23 06:41:56;;;;;;;1.70;1.38;;;12.30;90.90;;;;;;6157719;23;20080;-77
2023/09/23 06:44:22;;;;;;;1.67;1.27;;;12.30;90.90;;;;;;6157793;23;20013;-76
2023/09/23 06:46:50;;;;;;;2.53;1.55;;;12.30;90.90;;;;;;6158545;23;20809;-77
2023/09/23 06:49:16;;;;;;;2.55;1.40;;;12.30;90.90;;;;;;6157850;23;20004;-77
2023/09/23 06:51:42;;;;;;;1.20;1.10;;;12.40;90.90;;;;;;6132387;23;20027;-77
2023/09/23 06:54:07;;;;;;;2.30;1.40;;;12.40;90.90;;;;;;6107836;23;20087;-78
2023/09/23 06:56:34;;;;;;;2.03;1.25;;;12.40;90.90;;;;;;6156731;23;20063;-75
2023/09/23 06:59:01;;;;;;;1.40;0.90;;;12.40;90.90;;;;;;6131608;23;20084;-76
2023/09/23 07:01:27;;;;;;;1.35;1.10;;;12.40;90.90;;;;;;6157832;23;20005;-76
2023/09/23 07:03:53;;;;;;;1.05;0.95;;;12.50;90.90;;;;;;6157400;23;20017;-78
2023/09/23 07:06:19;;;;;;;1.20;1.10;;;12.40;90.90;;;;;;6157222;23;20322;-77
2023/09/23 07:08:45;;;;;;;1.75;1.35;;;12.60;90.90;;;;;;6156997;23;20008;-77
2023/09/23 07:11:13;;;;;;;1.42;1.20;;;12.60;90.90;;;;;;6132109;23;20005;-77
2023/09/23 07:13:39;;;;;;;1.80;1.40;;;12.60;90.90;;;;;;6156188;23;20060;-77
2023/09/23 07:16:05;;;;;;;1.48;1.38;;;12.60;90.80;;;;;;6156366;23;20005;-77
2023/09/23 07:18:31;;;;;;;1.67;1.23;;;12.70;90.80;;;;;;6157579;23;20040;-77
2023/09/23 07:20:57;;;;;;;1.20;1.10;;;12.70;90.80;;;;;;6156563;23;20092;-77
2023/09/23 07:23:23;;;;;;;1.35;1.00;;;12.70;90.70;;;;;;6156264;23;20009;-78
2023/09/23 07:25:50;;;;;;;1.10;1.00;;;12.70;90.80;;;;;;6131764;23;20012;-77
2023/09/23 07:28:16;;;;;;;1.38;1.27;;;12.80;90.70;;;;;;6182887;23;20009;-78
2023/09/23 07:30:42;;;;;;;1.65;1.00;;;12.80;90.70;;;;;;6131965;23;20430;-77
2023/09/23 07:33:07;;;;;;;1.30;1.10;;;12.80;90.70;;;;;;6133337;23;20378;-77
2023/09/23 07:35:34;;;;;;;1.10;1.00;;;13.00;90.70;;;;;;6157760;23;20056;-77
2023/09/23 07:38:01;;;;;;;1.00;0.90;;;13.00;90.70;;;;;;6157848;23;20009;-77
2023/09/23 07:40:28;;;;;;;0.98;0.88;;;13.00;90.60;;;;;;6157384;23;20001;-78
2023/09/23 07:42:54;;;;;;;1.42;1.10;;;13.10;90.60;;;;;;6132896;23;20096;-77
2023/09/23 07:45:20;;;;;;;1.33;1.05;;;13.10;90.90;;;;;;6157549;23;20001;-77
2023/09/23 07:47:46;;;;;;;1.20;1.10;;;13.20;90.60;;;;;;6158020;23;20005;-78
2023/09/23 07:50:12;;;;;;;1.40;1.05;;;13.30;90.50;;;;;;6132640;23;20001;-77
2023/09/23 07:52:38;;;;;;;1.35;1.00;;;13.30;90.40;;;;;;6133033;23;20329;-78
2023/09/23 07:55:05;;;;;;;1.13;0.85;;;13.30;90.40;;;;;;6133009;23;20334;-77
2023/09/23 07:57:32;;;;;;;1.30;1.10;;;13.40;90.40;;;;;;6157627;23;20001;-77
2023/09/23 07:59:58;;;;;;;1.15;1.02;;;13.40;90.50;;;;;;6133354;23;20425;-77
2023/09/23 08:02:24;;;;;;;1.08;0.88;;;13.50;90.40;;;;;;6157503;23;20091;-77
2023/09/23 08:04:50;;;;;;;1.20;1.05;;;13.50;90.40;;;;;;6157734;23;20045;-77
2023/09/23 08:07:16;;;;;;;1.38;1.10;;;13.60;90.40;;;;;;6108630;23;20324;-78
2023/09/23 08:09:41;;;;;;;1.00;0.90;;;13.60;90.40;;;;;;6157690;23;20080;-76
2023/09/23 08:12:07;;;;;;;1.65;1.13;;;13.70;90.30;;;;;;6133299;23;20001;-77
2023/09/23 08:14:33;;;;;;;1.08;0.98;;;13.80;90.20;;;;;;6184727;23;20413;-77
2023/09/23 08:16:59;;;;;;;1.23;1.13;;;13.80;90.20;;;;;;6133247;23;20008;-77
2023/09/23 08:19:25;;;;;;;1.20;1.10;;;13.90;90.20;;;;;;6183761;23;20009;-77
2023/09/23 08:21:52;;;;;;;2.38;1.20;;;14.00;90.20;;;;;;6133707;23;20091;-77
2023/09/23 08:24:17;;;;;;;1.10;0.90;;;14.10;90.10;;;;;;6156976;23;20508;-77
2023/09/23 08:26:43;;;;;;;1.38;1.10;;;14.20;90.10;;;;;;6157913;23;20005;-78
2023/09/23 08:29:09;;;;;;;1.42;1.27;;;14.30;90.10;;;;;;6108282;23;20001;-78
2023/09/23 08:31:36;;;;;;;1.63;1.20;;;14.40;90.00;;;;;;6133463;23;20005;-78
2023/09/23 08:34:04;;;;;;;1.60;1.15;;;14.60;89.90;;;;;;6133815;23;20005;-78
2023/09/23 08:36:30;;;;;;;2.03;1.00;;;14.60;89.70;;;;;;6157605;23;20100;-78
2023/09/23 08:38:55;;;;;;;1.13;1.00;;;14.70;89.50;;;;;;6198269;23;20361;-77
2023/09/23 08:41:22;;;;;;;1.02;0.95;;;14.80;89.30;;;;;;6148210;23;20005;-77
2023/09/23 08:43:51;;;;;;;1.05;0.90;;;14.90;89.10;;;;;;6173678;23;20017;-79
2023/09/23 08:46:19;;;;;;;1.75;1.00;;;14.90;89.00;;;;;;6169254;23;20001;-78
2023/09/23 08:48:45;;;;;;;1.48;1.10;;;14.90;88.90;;;;;;6166106;23;20072;-79
2023/09/23 08:51:13;;;;;;;1.67;0.95;;;14.80;89.10;;;;;;6138609;23;20008;-79
2023/09/23 08:53:39;;;;;;;1.15;1.00;;;14.80;89.40;;;;;;6195294;23;20009;-79
2023/09/23 08:56:06;;;;;;;1.20;1.00;;;14.80;89.50;;;;;;6141542;23;20041;-79
2023/09/23 08:58:33;;;;;;;1.40;1.05;;;14.80;89.60;;;;;;6144318;23;20020;-79
2023/09/23 09:00:59;;;;;;;1.70;1.10;;;14.80;89.60;;;;;;6146152;23;20005;-78
2023/09/23 09:03:26;;;;;;;2.08;1.25;;;14.90;89.60;;;;;;6192158;23;20615;-77
2023/09/23 09:05:52;;;;;;;2.15;1.25;;;14.80;89.40;;;;;;6192308;23;20095;-79
2023/09/23 09:08:18;;;;;;;1.20;1.10;;;14.80;89.60;;;;;;6188367;23;20016;-78
2023/09/23 09:10:44;;;;;;;1.83;0.90;;;14.80;89.70;;;;;;6160758;23;19997;-78
2023/09/23 09:13:10;;;;;;;1.13;1.00;;;14.80;89.70;;;;;;6168626;23;20084;-79
2023/09/23 09:15:37;;;;;;;1.65;1.00;;;14.80;89.80;;;;;;6145480;23;20483;-79
2023/09/23 09:18:04;;;;;;;2.30;0.90;;;14.90;89.80;;;;;;6143716;23;20025;-79
2023/09/23 09:20:30;;;;;;;1.75;1.00;;;14.90;89.70;;;;;;6123153;23;20021;-79
2023/09/23 09:22:57;;;;;;;1.15;0.90;;;14.90;89.60;;;;;;6206823;23;20029;-79
2023/09/23 09:25:23;;;;;;;1.10;0.75;;;14.90;89.60;;;;;;6119946;23;20370;-80
2023/09/23 09:27:52;;;;;;;1.33;0.80;;;14.90;89.50;;;;;;6179103;23;19993;-79
2023/09/23 09:30:19;;;;;;;1.08;0.77;;;15.00;89.60;;;;;;6132319;23;20044;-80
2023/09/23 09:32:46;;;;;;;1.08;0.85;;;14.90;89.60;;;;;;6175405;23;20004;-78
2023/09/23 09:35:15;;;;;;;1.30;0.90;;;14.80;89.70;;;;;;6182560;23;20001;-77
2023/09/23 09:37:48;;;;;;;0.85;0.77;;;14.80;89.80;;;;;;6182412;23;20065;-78
2023/09/23 09:40:17;;;;;;;1.00;0.73;;;14.80;90.00;;;;;;6161983;23;20012;-78
2023/09/23 09:42:54;;;;;;;1.05;0.90;;;14.80;90.00;;;;;;6186157;23;19997;-78
2023/09/23 09:45:21;;;;;;;1.05;0.75;;;14.70;90.10;;;;;;6210750;23;20028;-78
2023/09/23 09:47:50;;;;;;;0.90;0.90;;;14.60;90.10;;;;;;6182602;23;19997;-78
2023/09/23 09:50:16;;;;;;;1.85;0.90;;;14.70;90.20;;;;;;6182372;23;20532;-78
2023/09/23 09:52:43;;;;;;;0.93;0.85;;;14.70;90.20;;;;;;6181233;23;19982;-78
2023/09/23 09:55:15;;;;;;;1.13;0.77;;;14.70;90.20;;;;;;6180578;23;20017;-78
2023/09/23 09:57:42;;;;;;;1.05;0.82;;;14.70;90.10;;;;;;6156518;23;19989;-78
2023/09/23 10:02:58;;;;;;;1.13;0.80;;;14.80;90.20;;;;;;6208689;23;20013;-78
2023/09/23 10:05:31;;;;;;;1.23;0.73;;;14.80;90.20;;;;;;6157098;23;20009;-79
2023/09/23 10:07:57;;;;;;;0.93;0.80;;;14.80;90.20;;;;;;6203922;23;20350;-78
2023/09/23 10:10:31;;;;;;;0.60;0.57;;;14.80;90.20;;;;;;6181755;23;20005;-79
2023/09/23 10:13:08;;;;;;;0.63;0.63;;;14.80;90.20;;;;;;6182554;23;20004;-79
2023/09/23 10:15:37;;;;;;;1.17;0.90;;;14.80;90.20;;;;;;6158880;23;20008;-78
2023/09/23 10:18:09;;;;;;;1.02;0.60;;;14.90;90.10;;;;;;6157523;23;20005;-78
2023/09/23 10:20:41;;;;;;;0.68;0.60;;;14.80;90.10;;;;;;6155479;23;20029;-79
2023/09/23 10:23:08;;;;;;;0.88;0.75;;;14.90;90.10;;;;;;6208118;23;19985;-78
2023/09/23 10:25:39;;;;;;;0.57;0.55;;;15.00;90.10;;;;;;6132450;23;20016;-77
2023/09/23 10:28:06;;;;;;;1.75;0.82;;;15.00;90.10;;;;;;6209655;23;19997;-78
2023/09/23 10:30:33;;;;;;;1.02;0.73;;;15.10;90.00;;;;;;6210120;23;20020;-78
2023/09/23 10:32:59;;;;;;;0.70;0.70;;;15.20;90.00;;;;;;6184233;23;19993;-78
2023/09/23 10:35:26;;;;;;;0.82;0.70;;;15.20;89.90;;;;;;6209530;23;20012;-77
2023/09/23 10:37:52;;;;;;;0.82;0.68;;;15.30;89.90;;;;;;6156931;23;20032;-78
2023/09/23 10:40:18;;;;;;;1.05;0.70;;;15.40;89.70;;;;;;6134337;23;19997;-79
2023/09/23 10:42:46;;;;;;;0.77;0.70;;;15.40;89.60;;;;;;6209588;23;20009;-79
2023/09/23 10:45:14;;;;;;;1.20;0.90;;;15.60;89.50;;;;;;6158495;23;20088;-78
2023/09/23 10:47:43;;;;;;;1.10;0.98;;;15.60;89.30;;;;;;6208941;23;20013;-78
2023/09/23 10:50:10;;;;;;;0.80;0.80;;;15.70;89.20;;;;;;6159406;23;20001;-79
2023/09/23 10:52:36;;;;;;;1.60;0.90;;;15.80;89.00;;;;;;6159828;23;20001;-79
2023/09/23 10:55:02;;;;;;;1.80;1.00;;;15.90;88.80;;;;;;6209176;23;20013;-79
2023/09/23 10:57:29;;;;;;;1.08;0.98;;;15.90;88.60;;;;;;6182286;23;20028;-78
2023/09/23 10:59:56;;;;;;;0.98;0.82;;;16.00;88.60;;;;;;6182052;23;20033;-77
2023/09/23 11:02:22;;;;;;;0.85;0.85;;;16.00;88.50;;;;;;6182422;23;20005;-79
2023/09/23 11:04:49;;;;;;;1.35;1.10;;;16.00;88.50;;;;;;6204089;23;20017;-79
2023/09/23 11:07:16;;;;;;;0.73;0.70;;;16.00;88.60;;;;;;6180448;23;20005;-78
2023/09/23 11:09:45;;;;;;;1.30;0.90;;;16.00;88.50;;;;;;6207220;23;20001;-77
2023/09/23 11:12:16;;;;;;;1.83;0.93;;;16.10;88.40;;;;;;6176501;23;20040;-80
2023/09/23 11:14:45;;;;;;;1.63;0.82;;;16.20;88.30;;;;;;6133437;23;20433;-76
2023/09/23 11:17:29;;;;;;;1.98;0.80;;;16.20;88.30;;;;;;6184216;23;20009;-78
2023/09/23 11:19:58;;;;;;;1.20;0.80;;;16.20;88.40;;;;;;6181389;23;20009;-76
2023/09/23 11:22:25;;;;;;;2.55;1.08;;;16.10;88.90;;;;;;6157795;23;20005;-77
2023/09/23 11:24:51;;;;;;;1.02;0.85;;;16.10;88.30;;;;;;6109170;23;20020;-77
2023/09/23 11:27:17;;;;;;;2.20;1.00;;;16.10;88.40;;;;;;6158216;23;20017;-78
2023/09/23 11:29:43;;;;;;;0.93;0.80;;;16.00;88.40;;;;;;6157601;23;20412;-77
2023/09/23 11:32:10;;;;;;;0.80;0.80;;;16.00;88.50;;;;;;6160508;23;20005;-78
2023/09/23 11:34:36;;;;;;;0.98;0.88;;;15.90;88.50;;;;;;6160339;23;20005;-76
2023/09/23 11:37:05;;;;;;;1.35;0.98;;;15.80;88.80;;;;;;6168846;23;20428;-79
2023/09/23 11:39:35;;;;;;;1.38;1.08;;;15.70;89.10;;;;;;6121168;23;20337;-81
2023/09/23 11:42:02;;;;;;;1.25;0.85;;;15.50;89.30;;;;;;6150433;23;20001;-79
2023/09/23 11:44:28;;;;;;;1.83;0.80;;;15.50;89.70;;;;;;6199582;23;20013;-79
2023/09/23 11:46:54;;;;;;;1.30;0.90;;;15.50;89.90;;;;;;6207212;23;20437;-78
2023/09/23 11:49:20;;;;;;;1.23;0.82;;;15.50;90.00;;;;;;6198729;23;20120;-78
2023/09/23 11:51:46;;;;;;;0.98;0.80;;;15.50;90.00;;;;;;6205544;23;20004;-78
2023/09/23 11:54:12;;;;;;;1.17;0.80;;;15.50;90.10;;;;;;6203052;23;20005;-78
2023/09/23 11:56:38;;;;;;;1.08;0.80;;;15.50;90.00;;;;;;6173472;23;20001;-78
2023/09/23 11:59:04;;;;;;;1.20;0.70;;;15.60;90.00;;;;;;6194094;23;20005;-78
2023/09/23 12:01:30;;;;;;;0.82;0.82;;;15.60;90.00;;;;;;6141119;23;20009;-78
2023/09/23 12:03:58;;;;;;;1.15;0.80;;;15.70;90.00;;;;;;6166565;23;20083;-78
2023/09/23 12:06:25;;;;;;;1.15;0.90;;;15.80;89.80;;;;;;6169697;23;20005;-78
2023/09/23 12:08:51;;;;;;;1.70;1.02;;;15.90;89.80;;;;;;6164481;23;20009;-78
2023/09/23 12:11:21;;;;;;;0.95;0.85;;;15.90;89.70;;;;;;6164631;23;20013;-78
2023/09/23 12:13:48;;;;;;;0.80;0.80;;;16.00;89.60;;;;;;6160602;23;20096;-77
2023/09/23 12:16:13;;;;;;;0.80;0.80;;;16.00;89.50;;;;;;6160111;23;20041;-77
2023/09/23 12:18:39;;;;;;;1.70;1.00;;;16.00;89.40;;;;;;6159328;23;20032;-78
2023/09/23 12:21:05;;;;;;;1.08;0.80;;;16.10;89.50;;;;;;6136526;23;20084;-77
2023/09/23 12:23:32;;;;;;;1.08;0.80;;;16.10;89.40;;;;;;6134917;23;20013;-78
2023/09/23 12:25:58;;;;;;;1.08;0.70;;;16.10;89.30;;;;;;6158719;23;20036;-77
2023/09/23 12:28:24;;;;;;;0.75;0.50;;;16.10;89.30;;;;;;6110557;23;20437;-78
2023/09/23 12:30:50;;;;;;;1.42;0.80;;;16.20;89.30;;;;;;6134636;23;20001;-77
2023/09/23 12:33:15;;;;;;;1.05;0.80;;;16.20;89.30;;;;;;6186649;23;20414;-75
2023/09/23 12:35:41;;;;;;;2.17;0.60;;;16.20;89.30;;;;;;6159153;23;20005;-78
2023/09/23 12:38:07;;;;;;;0.70;0.50;;;16.20;89.20;;;;;;6143882;23;20005;-78
2023/09/23 12:40:33;;;;;;;0.93;0.60;;;16.20;89.20;;;;;;6169015;23;20024;-78
2023/09/23 12:42:59;;;;;;;0.68;0.40;;;16.30;89.30;;;;;;6132227;23;20093;-78
2023/09/23 12:45:25;;;;;;;1.55;0.73;;;16.30;89.00;;;;;;6158043;23;20074;-79
2023/09/23 12:47:51;;;;;;;1.65;0.70;;;16.30;88.90;;;;;;6157841;23;20386;-78
2023/09/23 12:50:17;;;;;;;1.02;0.52;;;16.50;89.00;;;;;;6183980;23;20001;-78